ELLXEBCI

Guest
Details From ELLX - Luxembourg
To EBCI - Brussels South - Charleroi
Flight Number -
Tags generated
Created
Modified
Stats Distance 85 nm / 157 km
Max Altitude 5,300 ft / 1,615 m
Waypoints 3
Social Downloads 0
Likes 0
Share VATSIM

Download

Looking for another format? Having issues loading an existing format? Contact us
Advertisement - Login to hide

Notes

Basic altitude profile: - Ascent Rate: 2500ft/min - Ascent Speed: 250kts - Cruise Altitude: 35000ft - Cruise Speed: 420kts - Descent Rate: 1500ft/min - Descent Speed: 250kts

Route

ELLX IDOSA EBCI

ID Type Via Altitude Latitude Longitude Leg Dist Tot Dist Heading (true) Name
O ELLX APT - 0 ft / 0 m 49.62660˚ 6.21151˚ - 0 nm - Luxembourg
IDOSA FIX - 5,300 ft / 1,615 m 49.74165˚ 5.86978˚ 14 nm 14 nm 298° / 297° -
O EBCI APT - 0 ft / 0 m 50.45995˚ 4.45312˚ 69 nm 84 nm 309° / 308° Brussels South - Charleroi

Altitude Profile

Advertisement - Login to hide

ELLX

Details ICAO ELLX (LUX)
Name Luxembourg
Region Luxembourg
Timezone Europe/Luxembourg (UTC+1.0)
Stats Elevation 1,158 ft / 353 m (AMSL)
Location 49.626599° 6.211506°
Runways 1
Magnetic Variation 1.690° E

METAR

ELLX 162020Z 28007KT 9999 FEW035 01/M00 Q1017 NOSIG

Decode

TAF

TAF ELLX 161700Z 1618/1724 26008KT 9999 SCT015 BKN020 PROB40 TEMPO 1618/1706 4000 -SHSN BKN008 BECMG 1701/1703 BKN008 BECMG 1722/1724 2000 -SN SN BKN005

Decode

Departure Runways

ID Width Length Bearing (true) Bearing (mag) Surface Threshold Offset Overrun Length
06 197 ft / 60 m 13,135 ft / 4,004 m 60.14° 58.45° Asphalt 0 ft / 0 m 0 ft / 0 m
24 197 ft / 60 m 13,135 ft / 4,004 m 240.18° 238.49° Asphalt 0 ft / 0 m 180 ft / 55 m

EBCI

Details ICAO EBCI (CRL)
Name Brussels South - Charleroi
Region Belgium
Timezone Europe/Brussels (UTC+1.0)
Stats Elevation 614 ft / 187 m (AMSL)
Location 50.459947° 4.453125°
Runways 1
Magnetic Variation 1.134° E

METAR

EBCI 162020Z 25007KT 9999 FEW008 BKN024 01/M00 Q1019 NOSIG

Decode

TAF

TAF EBCI 161700Z 1618/1724 28009KT 9999 FEW012TCU SCT030 TEMPO 1700/1708 2500 -SHSNRA BKN005 PROB30 TEMPO 1700/1706 1200 BKN002 BECMG 1704/1706 2500 BR BKN004 BECMG 1709/1711 8000 NSW SCT015 BECMG 1718/1720 22010KT BECMG 1722/1724 4000 -RADZ SCT005 BKN008

Decode

Destination Runways

ID Width Length Bearing (true) Bearing (mag) Surface Threshold Offset Overrun Length
07 148 ft / 45 m 8,374 ft / 2,552 m 65.53° 64.40° Asphalt 1,476 ft / 450 m 0 ft / 0 m
25 148 ft / 45 m 8,374 ft / 2,552 m 245.55° 244.42° Asphalt 0 ft / 0 m 0 ft / 0 m

Approach Navaids

Runway Type Ident Frequency Range Bearing (true) Bearing (mag) Slope Elevation
25 Localiser IGC 110.90 MHz 18 nm / 33 km 245.54° 244.41° - 614 ft / 187 m (AMSL)
25 Glidescope IGC 110.90 MHz 10 nm / 19 km 245.54° 244.41° 3.00° 614 ft / 187 m (AMSL)

Popular Alternatives